createdAt,value
2017-12-28T00:01:49.483Z,4.70
2017-12-28T00:04:18.751Z,4.70
2017-12-28T00:06:46.995Z,4.60
2017-12-28T00:09:15.267Z,4.60
2017-12-28T00:11:43.554Z,4.60
2017-12-28T00:14:11.780Z,4.50
2017-12-28T00:16:40.116Z,4.60
2017-12-28T00:19:08.390Z,4.60
2017-12-28T00:21:36.670Z,4.50
2017-12-28T00:24:05.005Z,4.50
2017-12-28T00:26:34.052Z,4.50
2017-12-28T00:29:03.274Z,4.50
2017-12-28T00:31:31.517Z,4.50
2017-12-28T00:34:01.429Z,4.40
2017-12-28T00:36:30.563Z,4.30
2017-12-28T00:38:58.851Z,4.20
2017-12-28T00:41:27.905Z,4.00
2017-12-28T00:43:56.167Z,4.00
2017-12-28T00:46:24.434Z,4.00
2017-12-28T00:48:53.645Z,4.00
2017-12-28T00:51:22.840Z,3.90
2017-12-28T00:53:51.074Z,3.90
2017-12-28T00:56:20.112Z,4.00
2017-12-28T00:58:49.579Z,4.00
2017-12-28T01:01:20.047Z,4.00
2017-12-28T01:03:48.294Z,4.00
2017-12-28T01:06:18.250Z,4.00
2017-12-28T01:08:46.498Z,3.90
2017-12-28T01:11:15.669Z,4.00
2017-12-28T01:13:44.666Z,3.90
2017-12-28T01:16:13.764Z,3.90
2017-12-28T01:18:42.809Z,3.90
2017-12-28T01:21:11.922Z,3.90
2017-12-28T01:23:40.172Z,4.00
2017-12-28T01:26:09.344Z,4.00
2017-12-28T01:28:38.380Z,4.00
2017-12-28T01:31:07.306Z,4.00
2017-12-28T01:33:36.253Z,4.00
2017-12-28T01:36:04.883Z,4.00
2017-12-28T01:38:33.885Z,3.90
2017-12-28T01:41:02.126Z,3.90
2017-12-28T01:43:30.665Z,4.00
2017-12-28T01:45:59.736Z,4.10
2017-12-28T01:48:28.014Z,4.10
2017-12-28T01:50:56.286Z,4.10
2017-12-28T01:53:25.435Z,4.10
2017-12-28T01:55:53.695Z,4.10
2017-12-28T01:58:22.052Z,4.10
2017-12-28T02:00:50.313Z,4.20
2017-12-28T02:03:18.563Z,4.10
2017-12-28T02:05:46.842Z,4.20
2017-12-28T02:08:15.084Z,4.20
2017-12-28T02:10:43.830Z,4.20
2017-12-28T02:13:12.100Z,4.20
2017-12-28T02:15:40.345Z,4.20
2017-12-28T02:18:09.695Z,4.20
2017-12-28T02:20:37.942Z,4.20
2017-12-28T02:23:06.181Z,4.20
2017-12-28T02:25:34.454Z,4.20
2017-12-28T02:28:03.450Z,4.30
2017-12-28T02:30:31.822Z,4.20
2017-12-28T02:33:00.073Z,4.30
2017-12-28T02:35:28.542Z,4.30
2017-12-28T02:37:56.782Z,4.30
2017-12-28T02:40:25.063Z,4.40
2017-12-28T02:42:53.313Z,4.40
2017-12-28T02:45:22.461Z,4.40
2017-12-28T02:47:50.721Z,4.20
2017-12-28T02:50:18.944Z,4.10
2017-12-28T02:52:47.227Z,4.00
2017-12-28T02:55:15.467Z,3.90
2017-12-28T02:57:43.715Z,3.70
2017-12-28T03:00:11.965Z,3.70
2017-12-28T03:02:40.241Z,3.70
2017-12-28T03:05:08.480Z,3.80
2017-12-28T03:07:36.757Z,3.90
2017-12-28T03:10:05.011Z,3.90
2017-12-28T03:12:33.722Z,3.90
2017-12-28T03:15:01.986Z,4.00
2017-12-28T03:17:30.694Z,4.00
2017-12-28T03:19:59.518Z,3.90
2017-12-28T03:22:29.635Z,3.90
2017-12-28T03:24:58.666Z,4.00
2017-12-28T03:27:26.915Z,4.00
2017-12-28T03:29:55.955Z,3.90
2017-12-28T03:32:24.243Z,3.90
2017-12-28T03:34:52.464Z,3.90
2017-12-28T03:37:21.490Z,3.80
2017-12-28T03:39:50.313Z,3.80
2017-12-28T03:42:18.584Z,3.90
2017-12-28T03:44:47.694Z,3.80
2017-12-28T03:47:15.938Z,3.80
2017-12-28T03:49:44.204Z,3.80
2017-12-28T03:52:12.474Z,3.80
2017-12-28T03:54:40.737Z,3.70
2017-12-28T03:57:10.468Z,3.60
2017-12-28T03:59:39.206Z,3.60
2017-12-28T04:02:07.462Z,3.70
2017-12-28T04:04:35.740Z,3.70
2017-12-28T04:07:03.992Z,3.70
2017-12-28T04:09:32.973Z,3.60
2017-12-28T04:12:01.739Z,3.70
2017-12-28T04:14:30.031Z,3.70
2017-12-28T04:16:58.261Z,3.60
2017-12-28T04:19:26.590Z,3.70
2017-12-28T04:21:56.909Z,3.80
2017-12-28T04:24:26.786Z,3.90
2017-12-28T04:26:55.087Z,3.90
2017-12-28T04:29:23.380Z,3.90
2017-12-28T04:31:52.483Z,4.00
2017-12-28T04:34:21.737Z,4.00
2017-12-28T04:36:49.965Z,3.90
2017-12-28T04:39:18.216Z,3.80
2017-12-28T04:41:46.553Z,3.80
2017-12-28T04:44:14.806Z,3.80
2017-12-28T04:46:43.040Z,3.70
2017-12-28T04:49:11.351Z,3.70
2017-12-28T04:51:39.604Z,3.60
2017-12-28T04:54:08.690Z,3.80
2017-12-28T04:56:36.948Z,3.80
2017-12-28T04:59:05.318Z,3.80
2017-12-28T05:01:33.575Z,3.80
2017-12-28T05:04:02.698Z,3.80
2017-12-28T05:06:30.941Z,3.80
2017-12-28T05:08:59.300Z,3.80
2017-12-28T05:11:27.724Z,3.80
2017-12-28T05:13:56.012Z,3.80
2017-12-28T05:16:25.123Z,3.70
2017-12-28T05:18:53.840Z,3.80
2017-12-28T05:21:23.701Z,3.90
2017-12-28T05:23:52.693Z,3.90
2017-12-28T05:26:25.104Z,3.90
2017-12-28T05:28:53.763Z,3.90
2017-12-28T05:31:23.640Z,3.70
2017-12-28T05:33:53.133Z,3.70
2017-12-28T05:36:22.212Z,3.70
2017-12-28T05:38:51.688Z,3.70
2017-12-28T05:41:21.422Z,3.70
2017-12-28T05:43:53.492Z,3.70
2017-12-28T05:46:22.234Z,3.70
2017-12-28T05:48:51.802Z,3.70
2017-12-28T05:51:20.878Z,3.70
2017-12-28T05:53:51.883Z,3.70
2017-12-28T05:56:20.385Z,3.60
2017-12-28T05:58:48.694Z,3.70
2017-12-28T06:01:17.415Z,3.70
2017-12-28T06:03:46.425Z,3.70
2017-12-28T06:06:14.759Z,3.70
2017-12-28T06:08:46.548Z,3.70
2017-12-28T06:11:14.897Z,3.70
2017-12-28T06:13:43.154Z,3.70
2017-12-28T06:16:12.247Z,3.70
2017-12-28T06:18:40.559Z,3.70
2017-12-28T06:21:09.588Z,3.80
2017-12-28T06:23:38.736Z,3.70
2017-12-28T06:26:09.518Z,3.60
2017-12-28T06:28:38.804Z,3.70
2017-12-28T06:31:08.941Z,3.60
2017-12-28T06:33:37.943Z,3.60
2017-12-28T06:36:06.872Z,3.60
2017-12-28T06:38:35.921Z,3.60
2017-12-28T06:41:05.791Z,3.60
2017-12-28T06:43:35.078Z,3.60
2017-12-28T06:46:03.992Z,3.60
2017-12-28T06:48:32.264Z,3.50
2017-12-28T06:51:03.802Z,3.60
2017-12-28T06:53:32.101Z,3.60
2017-12-28T06:56:00.364Z,3.50
2017-12-28T06:58:30.813Z,3.60
2017-12-28T07:00:59.857Z,3.70
2017-12-28T07:03:28.753Z,3.70
2017-12-28T07:05:57.032Z,3.60
2017-12-28T07:08:25.357Z,3.50
2017-12-28T07:10:54.584Z,3.60
2017-12-28T07:13:24.049Z,3.60
2017-12-28T07:15:53.163Z,3.70
2017-12-28T07:18:21.471Z,3.70
2017-12-28T07:20:49.735Z,3.70
2017-12-28T07:23:18.748Z,3.80
2017-12-28T07:25:47.015Z,3.70
2017-12-28T07:28:16.222Z,3.70
2017-12-28T07:30:45.225Z,3.60
2017-12-28T07:33:14.712Z,3.60
2017-12-28T07:35:43.691Z,3.60
2017-12-28T07:38:12.770Z,3.60
2017-12-28T07:40:41.185Z,3.60
2017-12-28T07:43:10.180Z,3.50
2017-12-28T07:45:38.457Z,3.40
2017-12-28T07:48:06.777Z,3.50
2017-12-28T07:50:35.058Z,3.50
2017-12-28T07:53:03.337Z,3.60
2017-12-28T07:55:32.093Z,3.60
2017-12-28T07:58:00.409Z,3.60
2017-12-28T08:00:28.677Z,3.70
2017-12-28T08:02:57.914Z,3.80
2017-12-28T08:05:27.024Z,3.70
2017-12-28T08:07:56.075Z,3.70
2017-12-28T08:10:24.328Z,3.80
2017-12-28T08:12:52.630Z,3.70
2017-12-28T08:15:20.910Z,3.70
2017-12-28T08:17:50.143Z,3.70
2017-12-28T08:20:19.062Z,3.60
2017-12-28T08:22:48.551Z,3.60
2017-12-28T08:25:17.790Z,3.60
2017-12-28T08:27:46.839Z,3.60
2017-12-28T08:30:15.159Z,3.50
2017-12-28T08:32:44.066Z,3.50
2017-12-28T08:35:12.342Z,3.40
2017-12-28T08:37:41.542Z,3.50
2017-12-28T08:40:09.822Z,3.40
2017-12-28T08:42:38.174Z,3.30
2017-12-28T08:45:06.483Z,3.20
2017-12-28T08:47:34.743Z,3.30
2017-12-28T08:50:03.010Z,3.30
2017-12-28T08:52:31.288Z,3.30
2017-12-28T08:54:59.683Z,3.30
2017-12-28T08:57:28.070Z,3.20
2017-12-28T08:59:57.024Z,3.20
2017-12-28T09:02:25.609Z,3.20
2017-12-28T09:04:55.543Z,3.20
2017-12-28T09:07:25.513Z,3.20
2017-12-28T09:09:54.677Z,3.40
2017-12-28T09:12:22.947Z,3.30
2017-12-28T09:14:51.721Z,3.40
2017-12-28T09:17:20.035Z,3.40
2017-12-28T09:19:48.323Z,3.40
2017-12-28T09:22:17.944Z,3.40
2017-12-28T09:24:49.079Z,3.50
2017-12-28T09:27:17.289Z,3.50
2017-12-28T09:29:45.687Z,3.40
2017-12-28T09:32:16.570Z,3.30
2017-12-28T09:34:46.047Z,3.40
2017-12-28T09:37:16.301Z,3.50
2017-12-28T09:39:46.167Z,3.50
2017-12-28T09:42:16.362Z,3.50
2017-12-28T09:44:45.409Z,3.50
2017-12-28T09:47:14.715Z,3.50
2017-12-28T09:49:44.501Z,3.50
2017-12-28T09:52:14.671Z,3.50
2017-12-28T09:54:44.514Z,3.60
2017-12-28T09:57:12.794Z,3.60
2017-12-28T09:59:41.967Z,3.80
2017-12-28T10:02:10.235Z,3.90
2017-12-28T10:04:40.942Z,4.00
2017-12-28T10:07:10.200Z,4.00
2017-12-28T10:09:39.223Z,3.90
2017-12-28T10:12:07.572Z,3.70
2017-12-28T10:14:37.369Z,3.90
2017-12-28T10:17:09.362Z,3.90
2017-12-28T10:19:37.725Z,3.90
2017-12-28T10:22:05.992Z,3.90
2017-12-28T10:24:34.368Z,3.80
2017-12-28T10:27:03.196Z,4.00
2017-12-28T10:29:31.553Z,4.10
2017-12-28T10:32:01.549Z,4.00
2017-12-28T10:34:29.862Z,3.90
2017-12-28T10:36:58.144Z,4.00
2017-12-28T10:39:27.054Z,4.00
2017-12-28T10:41:55.948Z,4.00
2017-12-28T10:44:24.677Z,3.90
2017-12-28T10:46:55.926Z,4.00
2017-12-28T10:49:24.256Z,4.10
2017-12-28T10:51:52.582Z,4.00
2017-12-28T10:54:21.883Z,4.00
2017-12-28T10:56:50.734Z,4.00
2017-12-28T10:59:20.684Z,4.00
2017-12-28T11:01:50.692Z,4.00
2017-12-28T11:04:19.396Z,4.00
2017-12-28T11:06:48.032Z,4.00
2017-12-28T11:09:17.225Z,4.00
2017-12-28T11:11:46.282Z,3.90
2017-12-28T11:14:15.692Z,3.90
2017-12-28T11:16:44.058Z,4.00
2017-12-28T11:19:13.166Z,4.00
2017-12-28T11:21:42.716Z,4.00
2017-12-28T11:24:11.488Z,3.90
2017-12-28T11:26:40.551Z,3.90
2017-12-28T11:29:12.945Z,3.70
2017-12-28T11:31:43.860Z,3.80
2017-12-28T11:34:12.922Z,3.80
2017-12-28T11:36:42.034Z,4.00
2017-12-28T11:39:10.947Z,4.00
2017-12-28T11:41:40.189Z,3.90
2017-12-28T11:44:09.824Z,3.90
2017-12-28T11:46:39.734Z,3.80
2017-12-28T11:49:10.653Z,4.00
2017-12-28T11:51:44.898Z,3.70
2017-12-28T11:54:13.274Z,3.60
2017-12-28T11:56:41.594Z,3.60
2017-12-28T11:59:17.553Z,3.70
2017-12-28T12:02:05.857Z,3.80
2017-12-28T12:04:39.776Z,3.90
2017-12-28T12:07:17.986Z,3.80
2017-12-28T12:09:51.297Z,3.70
2017-12-28T12:12:36.880Z,3.70
2017-12-28T12:15:05.918Z,3.70
2017-12-28T12:17:35.080Z,3.80
2017-12-28T12:20:03.887Z,3.80
2017-12-28T12:22:33.580Z,3.70
2017-12-28T12:25:04.244Z,3.70
2017-12-28T12:27:34.191Z,3.50
2017-12-28T12:30:03.986Z,3.50
2017-12-28T12:32:34.493Z,3.50
2017-12-28T12:35:03.650Z,3.30
2017-12-28T12:37:33.245Z,3.30
2017-12-28T12:40:01.637Z,3.40
2017-12-28T12:42:32.788Z,3.50
2017-12-28T12:45:03.824Z,3.50
2017-12-28T12:47:33.261Z,3.50
2017-12-28T12:50:03.255Z,3.50
2017-12-28T12:52:32.425Z,3.50
2017-12-28T12:55:01.167Z,3.60
2017-12-28T12:57:31.165Z,3.70
2017-12-28T13:00:00.516Z,3.70
2017-12-28T13:02:30.004Z,3.50
2017-12-28T13:05:00.531Z,3.50
2017-12-28T13:07:29.318Z,3.60
2017-12-28T13:09:57.598Z,3.60
2017-12-28T13:12:29.442Z,3.70
2017-12-28T13:14:59.987Z,3.70
2017-12-28T13:17:29.544Z,3.70
2017-12-28T13:19:58.888Z,3.70
2017-12-28T13:22:27.762Z,3.70
2017-12-28T13:24:57.090Z,3.80
2017-12-28T13:27:29.533Z,3.80
2017-12-28T13:29:59.225Z,3.70
2017-12-28T13:32:28.527Z,3.80
2017-12-28T13:34:58.386Z,3.70
2017-12-28T13:37:26.709Z,3.80
2017-12-28T13:39:56.325Z,3.70
2017-12-28T13:42:25.791Z,3.80
2017-12-28T13:44:55.399Z,3.60
2017-12-28T13:47:23.779Z,3.60
2017-12-28T13:49:52.851Z,3.50
2017-12-28T13:52:23.502Z,3.50
2017-12-28T13:54:53.803Z,3.40
2017-12-28T13:57:25.708Z,3.40
2017-12-28T13:59:55.840Z,3.30
2017-12-28T14:02:24.713Z,3.30
2017-12-28T14:04:57.184Z,3.50
2017-12-28T14:07:29.095Z,3.40
2017-12-28T14:09:58.286Z,3.40
2017-12-28T14:12:28.244Z,3.40
2017-12-28T14:14:57.730Z,3.50
2017-12-28T14:17:28.709Z,3.50
2017-12-28T14:19:57.639Z,3.50
2017-12-28T14:22:26.034Z,3.50
2017-12-28T14:24:56.115Z,3.50
2017-12-28T14:27:26.323Z,3.50
2017-12-28T14:29:54.683Z,3.50
2017-12-28T14:32:24.691Z,3.50
2017-12-28T14:34:54.009Z,3.50
2017-12-28T14:37:23.739Z,3.40
2017-12-28T14:39:53.849Z,3.40
2017-12-28T14:42:23.232Z,3.50
2017-12-28T14:44:51.722Z,3.40
2017-12-28T14:47:20.756Z,3.40
2017-12-28T14:49:49.986Z,3.40
2017-12-28T14:52:18.428Z,3.40
2017-12-28T14:54:48.852Z,3.30
2017-12-28T14:57:18.151Z,3.20
2017-12-28T14:59:46.582Z,3.20
2017-12-28T15:02:15.945Z,3.20
2017-12-28T15:04:45.116Z,3.10
2017-12-28T15:07:15.142Z,3.10
2017-12-28T15:09:44.628Z,3.10
2017-12-28T15:12:17.063Z,3.00
2017-12-28T15:14:46.036Z,2.90
2017-12-28T15:17:14.888Z,2.90
2017-12-28T15:19:45.067Z,2.90
2017-12-28T15:22:13.382Z,2.90
2017-12-28T15:24:41.887Z,3.00
2017-12-28T15:27:10.947Z,3.00
2017-12-28T15:29:40.217Z,3.00
2017-12-28T15:32:09.389Z,3.00
2017-12-28T15:34:38.231Z,3.00
2017-12-28T15:37:08.832Z,3.10
2017-12-28T15:39:38.413Z,3.10
2017-12-28T15:42:09.599Z,3.10
2017-12-28T15:44:38.735Z,3.10
2017-12-28T15:47:08.832Z,3.20
2017-12-28T15:49:38.294Z,3.20
2017-12-28T15:52:10.574Z,3.40
2017-12-28T15:54:40.795Z,3.40
2017-12-28T15:57:10.126Z,3.20
2017-12-28T15:59:40.192Z,3.20
2017-12-28T16:02:11.036Z,3.10
2017-12-28T16:04:40.636Z,3.20
2017-12-28T16:07:09.035Z,3.20
2017-12-28T16:09:37.387Z,3.10
2017-12-28T16:12:08.651Z,3.20
2017-12-28T16:14:38.106Z,3.10
2017-12-28T16:17:06.396Z,3.10
2017-12-28T16:19:34.876Z,3.10
2017-12-28T16:22:04.685Z,3.20
2017-12-28T16:24:33.704Z,3.00
2017-12-28T16:27:02.016Z,3.00
2017-12-28T16:29:32.731Z,3.10
2017-12-28T16:32:02.766Z,3.20
2017-12-28T16:34:31.295Z,3.20
2017-12-28T16:37:01.376Z,3.20
2017-12-28T16:39:32.927Z,3.20
2017-12-28T16:42:01.207Z,3.30
2017-12-28T16:44:31.129Z,3.40
2017-12-28T16:47:02.433Z,3.40
2017-12-28T16:49:30.684Z,3.30
2017-12-28T16:51:59.013Z,3.30
2017-12-28T16:54:29.391Z,3.30
2017-12-28T16:56:57.693Z,3.30
2017-12-28T16:59:25.996Z,3.30
2017-12-28T17:01:55.055Z,3.20
2017-12-28T17:04:23.487Z,3.20
2017-12-28T17:06:53.003Z,3.30
2017-12-28T17:09:22.243Z,3.30
2017-12-28T17:11:51.823Z,3.30
2017-12-28T17:14:20.881Z,3.40
2017-12-28T17:16:50.917Z,3.40
2017-12-28T17:19:20.627Z,3.40
2017-12-28T17:21:50.286Z,3.40
2017-12-28T17:24:19.174Z,3.40
2017-12-28T17:26:49.312Z,3.20
2017-12-28T17:29:19.483Z,3.10
2017-12-28T17:31:47.890Z,3.10
2017-12-28T17:34:16.234Z,3.10
2017-12-28T17:36:47.002Z,3.20
2017-12-28T17:39:16.877Z,3.20
2017-12-28T17:41:47.490Z,3.20
2017-12-28T17:44:17.144Z,3.20
2017-12-28T17:46:47.063Z,3.30
2017-12-28T17:49:17.790Z,3.30
2017-12-28T17:51:49.294Z,3.40
2017-12-28T17:54:17.952Z,3.30
2017-12-28T17:56:48.058Z,3.30
2017-12-28T17:59:16.337Z,3.30
2017-12-28T18:01:45.364Z,3.20
2017-12-28T18:04:14.958Z,3.20
2017-12-28T18:06:45.298Z,3.20
2017-12-28T18:09:15.244Z,3.20
2017-12-28T18:11:44.100Z,3.20
2017-12-28T18:14:14.207Z,3.20
2017-12-28T18:16:44.966Z,3.20
2017-12-28T18:19:14.031Z,3.20
2017-12-28T18:21:43.265Z,3.20
2017-12-28T18:24:12.193Z,3.20
2017-12-28T18:26:40.585Z,3.30
2017-12-28T18:29:09.205Z,3.30
2017-12-28T18:31:38.216Z,3.30
2017-12-28T18:34:06.625Z,3.30
2017-12-28T18:36:37.209Z,3.30
2017-12-28T18:39:06.813Z,3.20
2017-12-28T18:41:35.143Z,3.20
2017-12-28T18:44:04.024Z,3.20
2017-12-28T18:46:32.357Z,3.20
2017-12-28T18:49:01.460Z,3.20
2017-12-28T18:51:30.419Z,3.20
2017-12-28T18:54:00.280Z,3.30
2017-12-28T18:56:29.423Z,3.30
2017-12-28T18:58:58.255Z,3.40
2017-12-28T19:01:27.013Z,3.30
2017-12-28T19:03:55.343Z,3.30
2017-12-28T19:06:25.197Z,3.30
2017-12-28T19:08:54.283Z,3.30
2017-12-28T19:11:23.238Z,3.20
2017-12-28T19:13:52.371Z,3.30
2017-12-28T19:16:21.846Z,3.20
2017-12-28T19:18:51.427Z,3.20
2017-12-28T19:21:21.177Z,3.20
2017-12-28T19:23:53.700Z,3.20
2017-12-28T19:26:23.241Z,3.40
2017-12-28T19:28:53.084Z,3.40
2017-12-28T19:31:22.444Z,3.40
2017-12-28T19:33:52.007Z,3.40
2017-12-28T19:36:22.064Z,3.50
2017-12-28T19:38:52.764Z,3.40
2017-12-28T19:41:23.610Z,3.50
2017-12-28T19:43:52.391Z,3.50
2017-12-28T19:46:21.274Z,3.50
2017-12-28T19:48:51.274Z,3.40
2017-12-28T19:51:21.009Z,3.40
2017-12-28T19:53:52.061Z,3.40
2017-12-28T19:56:22.645Z,3.40
2017-12-28T19:58:52.087Z,3.40
2017-12-28T20:01:20.410Z,3.40
2017-12-28T20:03:50.643Z,3.20
2017-12-28T20:06:19.273Z,3.20
2017-12-28T20:08:48.376Z,3.20
2017-12-28T20:11:16.777Z,3.20
2017-12-28T20:13:46.074Z,3.20
2017-12-28T20:16:16.196Z,3.20
2017-12-28T20:18:46.443Z,3.30
2017-12-28T20:21:16.429Z,3.30
2017-12-28T20:23:45.327Z,3.30
2017-12-28T20:26:14.816Z,3.20
2017-12-28T20:28:43.226Z,3.20
2017-12-28T20:31:13.038Z,3.30
2017-12-28T20:33:42.963Z,3.30
2017-12-28T20:36:12.953Z,3.30
2017-12-28T20:38:41.314Z,3.30
2017-12-28T20:41:10.146Z,3.40
2017-12-28T20:43:39.678Z,3.30
2017-12-28T20:46:08.315Z,3.30
2017-12-28T20:48:36.748Z,3.30
2017-12-28T20:51:05.994Z,3.20
2017-12-28T20:53:35.199Z,3.20
2017-12-28T20:56:03.610Z,3.20
2017-12-28T20:58:33.170Z,3.20
2017-12-28T21:01:03.820Z,3.30
2017-12-28T21:03:33.329Z,3.30
2017-12-28T21:06:02.807Z,3.30
2017-12-28T21:08:32.741Z,3.40
2017-12-28T21:11:01.939Z,3.40
2017-12-28T21:13:30.532Z,3.40
2017-12-28T21:16:00.738Z,3.50
2017-12-28T21:18:30.885Z,3.40
2017-12-28T21:20:59.330Z,3.40
2017-12-28T21:23:28.036Z,3.50
2017-12-28T21:25:59.503Z,3.50
2017-12-28T21:28:27.923Z,3.50
2017-12-28T21:30:56.560Z,3.50
2017-12-28T21:33:25.693Z,3.50
2017-12-28T21:35:54.309Z,3.60
2017-12-28T21:38:25.184Z,3.50
2017-12-28T21:40:55.567Z,3.50
2017-12-28T21:43:24.802Z,3.40
2017-12-28T21:45:54.353Z,3.40
2017-12-28T21:48:24.023Z,3.40
2017-12-28T21:50:53.409Z,3.30
2017-12-28T21:53:22.736Z,3.30
2017-12-28T21:55:51.464Z,3.40
2017-12-28T21:58:20.513Z,3.40
2017-12-28T22:00:50.446Z,3.40
2017-12-28T22:03:20.846Z,3.50
2017-12-28T22:05:49.441Z,3.50
2017-12-28T22:08:19.061Z,3.60
2017-12-28T22:10:48.393Z,3.60
2017-12-28T22:13:17.609Z,3.60
2017-12-28T22:15:45.903Z,3.60
2017-12-28T22:18:14.186Z,3.60
2017-12-28T22:20:43.624Z,3.60
2017-12-28T22:23:12.058Z,3.60
2017-12-28T22:25:40.341Z,3.70
2017-12-28T22:28:08.853Z,3.60
2017-12-28T22:30:37.133Z,3.70
2017-12-28T22:33:06.454Z,3.50
2017-12-28T22:35:36.051Z,3.50
2017-12-28T22:38:05.331Z,3.50
2017-12-28T22:40:34.544Z,3.40
2017-12-28T22:43:03.656Z,3.40
2017-12-28T22:45:32.833Z,3.50
2017-12-28T22:48:01.234Z,3.60
2017-12-28T22:50:31.993Z,3.60
2017-12-28T22:53:03.125Z,3.50
2017-12-28T22:55:33.774Z,3.50
2017-12-28T22:58:02.707Z,3.40
2017-12-28T23:00:32.065Z,3.50
2017-12-28T23:03:01.529Z,3.50
2017-12-28T23:05:29.791Z,3.50
2017-12-28T23:07:58.037Z,3.50
2017-12-28T23:10:29.026Z,3.50
2017-12-28T23:12:59.035Z,3.50
2017-12-28T23:15:27.295Z,3.40
2017-12-28T23:17:55.618Z,3.50
2017-12-28T23:20:24.655Z,3.50
2017-12-28T23:22:53.874Z,3.50
2017-12-28T23:25:22.165Z,3.50
2017-12-28T23:27:51.325Z,3.50
2017-12-28T23:30:21.423Z,3.40
2017-12-28T23:32:51.783Z,3.50
2017-12-28T23:35:23.067Z,3.60
2017-12-28T23:37:54.113Z,3.50
2017-12-28T23:40:24.122Z,3.50
2017-12-28T23:42:53.714Z,3.50
2017-12-28T23:45:24.967Z,3.50
2017-12-28T23:47:53.836Z,3.50
2017-12-28T23:50:23.942Z,3.50
2017-12-28T23:52:55.237Z,3.40
2017-12-28T23:55:24.922Z,3.40
2017-12-28T23:57:55.995Z,3.40
